createdAt,value
2022-09-24T00:04:21.232Z,0
2022-09-24T00:09:22.692Z,0
2022-09-24T00:14:25.147Z,0
2022-09-24T00:19:26.938Z,0
2022-09-24T00:24:28.449Z,0
2022-09-24T00:29:30.411Z,0
2022-09-24T00:34:32.321Z,0
2022-09-24T00:39:34.071Z,0
2022-09-24T00:44:35.586Z,0
2022-09-24T00:49:37.372Z,0
2022-09-24T00:54:39.142Z,0
2022-09-24T00:59:41.221Z,0
2022-09-24T01:04:42.621Z,0
2022-09-24T01:09:44.055Z,0
2022-09-24T01:14:45.847Z,0
2022-09-24T01:19:47.471Z,0
2022-09-24T01:24:49.107Z,0
2022-09-24T01:29:51.057Z,0
2022-09-24T01:34:52.650Z,0
2022-09-24T01:39:54.342Z,0
2022-09-24T01:44:56.292Z,0
2022-09-24T01:49:57.812Z,0
2022-09-24T01:54:59.486Z,0
2022-09-24T02:00:01.123Z,0
2022-09-24T02:05:02.909Z,0
2022-09-24T02:10:04.561Z,0.88715
2022-09-24T02:15:06.163Z,0
2022-09-24T02:20:09.818Z,0
2022-09-24T02:25:11.311Z,0
2022-09-24T02:30:12.907Z,0
2022-09-24T02:35:14.558Z,0
2022-09-24T02:40:16.360Z,0
2022-09-24T02:45:18.263Z,0
2022-09-24T02:50:19.797Z,0
2022-09-24T02:55:21.557Z,0
2022-09-24T03:00:23.509Z,0
2022-09-24T03:05:25.080Z,0
2022-09-24T03:10:26.749Z,0
2022-09-24T03:15:28.201Z,0
2022-09-24T03:20:29.778Z,0.88715
2022-09-24T03:25:31.177Z,0.88715
2022-09-24T03:30:33.023Z,0.88715
2022-09-24T03:35:34.500Z,0.4148
2022-09-24T03:40:36.033Z,0.9481
2022-09-24T03:45:37.649Z,2.13325
2022-09-24T03:50:39.079Z,4.7767
2022-09-24T03:55:41.251Z,15.4178
2022-09-24T04:00:43.193Z,27.7741
2022-09-24T04:05:44.909Z,45.93965
2022-09-24T04:10:46.650Z,68.56815
2022-09-24T04:15:48.447Z,93.3359
2022-09-24T04:20:50.374Z,119.08105
2022-09-24T04:25:52.192Z,144.64175
2022-09-24T04:30:54.095Z,169.6871
2022-09-24T04:35:55.838Z,192.6465
2022-09-24T04:40:57.699Z,243.49215
2022-09-24T04:45:59.731Z,233.68015
2022-09-24T04:51:01.645Z,252.63865
2022-09-24T04:56:03.443Z,273.18305
2022-09-24T05:01:05.619Z,288.0475
2022-09-24T05:06:07.544Z,308.29715
2022-09-24T05:11:09.301Z,340.5532
2022-09-24T05:16:11.249Z,404.7154
2022-09-24T05:21:13.030Z,428.9868
2022-09-24T05:26:14.768Z,457.83145
2022-09-24T05:31:16.826Z,488.9998
2022-09-24T05:36:18.580Z,513.0126
2022-09-24T05:41:20.300Z,538.18725
2022-09-24T05:46:22.181Z,565.13225
2022-09-24T05:51:23.748Z,587.19025
2022-09-24T05:56:25.195Z,613.1027
2022-09-24T06:01:26.951Z,628.1896
2022-09-24T06:06:28.450Z,635.99165
2022-09-24T06:11:29.917Z,667.2893
2022-09-24T06:16:31.616Z,688.90425
2022-09-24T06:21:33.163Z,709.48665
2022-09-24T06:26:34.601Z,727.13685
2022-09-24T06:31:36.660Z,739.64145
2022-09-24T06:36:38.274Z,741.13605
2022-09-24T06:41:40.098Z,757.55025
2022-09-24T06:46:42.136Z,789.8063
2022-09-24T06:51:43.948Z,809.7802
2022-09-24T06:56:45.556Z,837.75775
2022-09-24T07:01:47.478Z,826.5823
2022-09-24T07:06:49.122Z,875.0491
2022-09-24T07:11:50.759Z,897.457
2022-09-24T07:16:52.390Z,872.984
2022-09-24T07:21:54.072Z,932.2592
2022-09-24T07:26:55.713Z,950.05585
2022-09-24T07:31:57.634Z,978.6419
2022-09-24T07:36:59.350Z,991.6257
2022-09-24T07:42:00.989Z,1019.898
2022-09-24T07:47:02.648Z,1021.2633
2022-09-24T07:52:04.471Z,1075.29975
2022-09-24T07:57:06.191Z,1107.00245
2022-09-24T08:02:08.221Z,1116.68515
2022-09-24T08:07:09.971Z,1105.30625
2022-09-24T08:12:11.681Z,1141.7115
2022-09-24T08:17:13.401Z,1184.2949
2022-09-24T08:22:15.124Z,1201.37275
2022-09-24T08:27:17.574Z,1241.89105
2022-09-24T08:32:19.693Z,1214.72545
2022-09-24T08:37:21.414Z,1230.457
2022-09-24T08:42:23.165Z,1236.28525
2022-09-24T08:47:24.646Z,1348.8021
2022-09-24T08:52:26.039Z,1375.91255
2022-09-24T08:57:27.770Z,1369.8827
2022-09-24T09:02:29.732Z,1435.3532
2022-09-24T09:07:31.490Z,1463.80995
2022-09-24T09:12:33.229Z,1431.5729
2022-09-24T09:17:34.982Z,1429.93185
2022-09-24T09:22:36.633Z,1501.1013
2022-09-24T09:27:38.413Z,1586.82145
2022-09-24T09:32:40.620Z,1530.6096
2022-09-24T09:37:42.403Z,1623.0061
2022-09-24T09:42:43.969Z,1704.55805
2022-09-24T09:47:45.361Z,1673.6673
2022-09-24T09:52:46.771Z,1681.7451
2022-09-24T09:57:48.286Z,1745.42625
2022-09-24T10:02:50.166Z,1825.3923
2022-09-24T10:07:51.755Z,1774.3622
2022-09-24T10:12:53.200Z,1772.5177
2022-09-24T10:17:54.699Z,1810.63815
2022-09-24T10:22:56.119Z,1952.44085
2022-09-24T10:27:57.621Z,1975.733
2022-09-24T10:32:59.279Z,1923.79965
2022-09-24T10:38:00.716Z,2081.1856
2022-09-24T10:43:02.551Z,1999.9664
2022-09-24T10:48:04.204Z,2123.47425
2022-09-24T10:53:05.724Z,2170.55675
2022-09-24T10:58:07.259Z,2191.5252
2022-09-24T11:03:09.015Z,2199.2151
2022-09-24T11:08:10.447Z,2232.88975
2022-09-24T11:13:11.879Z,2272.5771
2022-09-24T11:18:13.458Z,2244.5444
2022-09-24T11:23:14.878Z,2306.86025
2022-09-24T11:28:16.544Z,2361.0793
2022-09-24T11:33:22.718Z,2366.02145
2022-09-24T11:38:24.746Z,2339.33505
2022-09-24T11:43:26.284Z,2338.33865
2022-09-24T11:48:27.873Z,2351.3586
2022-09-24T11:53:29.389Z,2367.3659
2022-09-24T11:58:30.901Z,2291.144
2022-09-24T12:03:32.888Z,2338.2265
2022-09-24T12:08:34.650Z,2275.15385
2022-09-24T12:13:36.204Z,2239.67085
2022-09-24T12:18:38.004Z,2238.49
2022-09-24T12:23:39.778Z,2245.75585
2022-09-24T12:28:41.524Z,2200.554
2022-09-24T12:33:43.479Z,2142.86655
2022-09-24T12:38:45.222Z,2068.59945
2022-09-24T12:43:46.959Z,2082.2089
2022-09-24T12:48:48.884Z,2039.44105
2022-09-24T12:53:50.643Z,2052.442
2022-09-24T12:58:52.280Z,1996.7645
2022-09-24T13:03:53.993Z,1995.0303
2022-09-24T13:08:55.916Z,2012.7528
2022-09-24T13:13:57.626Z,2003.6786
2022-09-24T13:18:59.441Z,1848.1923
2022-09-24T13:24:01.217Z,1831.11445
2022-09-24T13:29:02.974Z,1787.6088
2022-09-24T13:34:05.014Z,1819.45795
2022-09-24T13:39:06.876Z,1694.3642
2022-09-24T13:44:08.711Z,1625.5013
2022-09-24T13:49:10.576Z,1513.2069
2022-09-24T13:54:12.344Z,1510.07125
2022-09-24T13:59:14.081Z,1505.8479
2022-09-24T14:04:15.751Z,1475.19675
2022-09-24T14:09:17.173Z,1367.80835
2022-09-24T14:14:18.742Z,1339.90495
2022-09-24T14:19:20.278Z,1187.5353
2022-09-24T14:24:21.829Z,1108.69495
2022-09-24T14:29:23.560Z,1117.676
2022-09-24T14:34:25.304Z,1051.08165
2022-09-24T14:39:26.776Z,514.3325
2022-09-24T14:44:28.476Z,506.86505
2022-09-24T14:49:30.127Z,644.4476
2022-09-24T14:54:31.677Z,549.56195
2022-09-24T14:59:33.246Z,565.84685
2022-09-24T15:04:34.969Z,473.7451
2022-09-24T15:09:36.486Z,391.8414
2022-09-24T15:14:37.927Z,313.39685
2022-09-24T15:19:39.461Z,233.91
2022-09-24T15:24:41.018Z,188.0828
2022-09-24T15:29:42.484Z,163.77125
2022-09-24T15:34:44.313Z,121.44645
2022-09-24T15:39:45.749Z,93.89295
2022-09-24T15:44:47.274Z,81.1849
2022-09-24T15:49:48.732Z,63.9036
2022-09-24T15:54:50.389Z,46.512
2022-09-24T15:59:52.158Z,30.78045
2022-09-24T16:04:53.852Z,18.4793
2022-09-24T16:09:55.326Z,8.63115
2022-09-24T16:14:56.937Z,3.3184
2022-09-24T16:19:58.745Z,1.24435
2022-09-24T16:25:00.307Z,2.3237
2022-09-24T16:30:02.085Z,0
2022-09-24T16:35:04.035Z,0.88715
2022-09-24T16:40:05.805Z,0.88715
2022-09-24T16:45:07.542Z,0
2022-09-24T16:50:09.301Z,0
2022-09-24T16:55:11.041Z,0
2022-09-24T17:00:12.933Z,0
2022-09-24T17:05:14.905Z,0
2022-09-24T17:10:16.655Z,0
2022-09-24T17:15:18.410Z,0
2022-09-24T17:20:20.155Z,0
2022-09-24T17:25:21.928Z,0
2022-09-24T17:30:23.658Z,0
2022-09-24T17:35:25.745Z,0
2022-09-24T17:40:27.467Z,0
2022-09-24T17:45:28.999Z,0
2022-09-24T17:50:30.494Z,0
2022-09-24T17:55:32.063Z,0
2022-09-24T18:00:33.839Z,0
2022-09-24T18:05:35.506Z,0
2022-09-24T18:10:37.012Z,0
2022-09-24T18:15:38.560Z,0
2022-09-24T18:20:40.136Z,0
2022-09-24T18:25:41.754Z,0
2022-09-24T18:30:43.435Z,0
2022-09-24T18:35:45.188Z,0
2022-09-24T18:40:46.905Z,0
2022-09-24T18:45:48.674Z,0
2022-09-24T18:50:50.591Z,0
2022-09-24T18:55:52.422Z,0
2022-09-24T19:00:54.039Z,0
2022-09-24T19:05:55.878Z,0
2022-09-24T19:10:57.682Z,0
2022-09-24T19:15:59.640Z,0
2022-09-24T19:21:01.732Z,0
2022-09-24T19:26:03.541Z,0
2022-09-24T19:31:05.353Z,0
2022-09-24T19:36:07.327Z,0
2022-09-24T19:41:09.070Z,0
2022-09-24T19:46:10.945Z,0
2022-09-24T19:51:12.853Z,0
2022-09-24T19:56:14.950Z,0
2022-09-24T20:01:17.704Z,0
2022-09-24T20:06:21.094Z,0
2022-09-24T20:11:23.348Z,0
2022-09-24T20:16:25.122Z,0
2022-09-24T20:21:26.873Z,0
2022-09-24T20:26:28.344Z,0
2022-09-24T20:31:30.082Z,0
2022-09-24T20:36:32.330Z,0
2022-09-24T20:41:33.963Z,0
2022-09-24T20:46:35.622Z,0
2022-09-24T20:51:37.245Z,0
2022-09-24T20:56:38.755Z,0
2022-09-24T21:01:40.257Z,0
2022-09-24T21:06:42.220Z,0
2022-09-24T21:11:43.648Z,0
2022-09-24T21:16:45.384Z,0
2022-09-24T21:21:47.313Z,0
2022-09-24T21:26:49.022Z,0
2022-09-24T21:31:50.739Z,0
2022-09-24T21:36:52.592Z,0
2022-09-24T21:41:54.272Z,0
2022-09-24T21:46:56.014Z,0
2022-09-24T21:51:57.751Z,0
2022-09-24T21:56:59.553Z,0
2022-09-24T22:02:01.226Z,0
2022-09-24T22:07:02.937Z,0
2022-09-24T22:12:04.406Z,0
2022-09-24T22:17:06.003Z,0
2022-09-24T22:22:07.679Z,0
2022-09-24T22:27:09.131Z,0
2022-09-24T22:32:10.658Z,0
2022-09-24T22:37:12.329Z,0
2022-09-24T22:42:13.770Z,0
2022-09-24T22:47:15.229Z,0
2022-09-24T22:52:16.871Z,0
2022-09-24T22:57:18.277Z,0
2022-09-24T23:02:19.758Z,0
2022-09-24T23:07:21.382Z,0
2022-09-24T23:12:22.812Z,0
2022-09-24T23:17:24.366Z,0
2022-09-24T23:22:25.895Z,0
2022-09-24T23:27:27.372Z,0
2022-09-24T23:32:28.814Z,0
2022-09-24T23:37:30.466Z,0
2022-09-24T23:42:32.208Z,0
2022-09-24T23:47:36.145Z,0
2022-09-24T23:52:37.957Z,0
2022-09-24T23:57:39.555Z,0
